createdAt,value
2022-10-01T00:01:14.692Z,5.47
2022-10-01T00:03:42.910Z,4.90
2022-10-01T00:06:14.716Z,4.60
2022-10-01T00:08:42.825Z,5.20
2022-10-01T00:11:11.462Z,5.70
2022-10-01T00:13:39.254Z,7.17
2022-10-01T00:16:07.992Z,8.07
2022-10-01T00:18:36.477Z,5.57
2022-10-01T00:21:06.279Z,6.23
2022-10-01T00:23:33.814Z,4.63
2022-10-01T00:26:11.371Z,6.53
2022-10-01T00:28:38.856Z,5.27
2022-10-01T00:31:07.439Z,4.50
2022-10-01T00:33:35.400Z,4.93
2022-10-01T00:36:03.518Z,4.30
2022-10-01T00:38:31.036Z,5.60
2022-10-01T00:40:58.660Z,4.30
2022-10-01T00:43:33.418Z,6.63
2022-10-01T00:46:10.324Z,4.90
2022-10-01T00:48:41.530Z,7.20
2022-10-01T00:51:09.106Z,3.97
2022-10-01T00:53:36.581Z,5.83
2022-10-01T00:56:04.094Z,4.10
2022-10-01T00:58:31.676Z,6.73
2022-10-01T01:00:59.296Z,4.47
2022-10-01T01:03:27.142Z,5.13
2022-10-01T01:05:54.620Z,4.87
2022-10-01T01:08:22.213Z,5.80
2022-10-01T01:10:55.968Z,4.60
2022-10-01T01:13:29.441Z,4.43
2022-10-01T01:16:09.839Z,5.83
2022-10-01T01:18:42.214Z,4.70
2022-10-01T01:21:12.456Z,4.27
2022-10-01T01:24:01.243Z,5.50
2022-10-01T01:26:59.545Z,7.30
2022-10-01T01:29:39.350Z,6.13
2022-10-01T01:32:29.477Z,4.43
2022-10-01T01:34:59.405Z,7.50
2022-10-01T01:37:28.581Z,4.10
2022-10-01T01:39:56.982Z,7.27
2022-10-01T01:42:32.429Z,4.87
2022-10-01T01:45:04.809Z,3.70
2022-10-01T01:47:37.089Z,4.37
2022-10-01T01:50:07.742Z,4.57
2022-10-01T01:52:39.585Z,3.23
2022-10-01T01:55:07.770Z,3.70
2022-10-01T01:57:38.343Z,3.63
2022-10-01T02:00:06.224Z,4.30
2022-10-01T02:02:35.839Z,3.07
2022-10-01T02:05:06.138Z,3.37
2022-10-01T02:07:33.683Z,6.10
2022-10-01T02:10:16.199Z,8.03
2022-10-01T02:12:53.067Z,4.60
2022-10-01T02:15:37.139Z,4.23
2022-10-01T02:18:14.039Z,4.17
2022-10-01T02:20:50.628Z,5.57
2022-10-01T02:23:20.796Z,6.43
2022-10-01T02:25:54.870Z,5.27
2022-10-01T02:28:23.836Z,4.87
2022-10-01T02:30:52.588Z,5.37
2022-10-01T02:33:23.711Z,8.73
2022-10-01T02:35:51.896Z,4.03
2022-10-01T02:38:19.775Z,6.40
2022-10-01T02:40:48.848Z,4.67
2022-10-01T02:43:17.891Z,7.17
2022-10-01T02:45:47.405Z,7.23
2022-10-01T02:48:15.262Z,3.73
2022-10-01T02:50:50.655Z,4.23
2022-10-01T02:53:22.740Z,5.40
2022-10-01T02:55:50.760Z,6.40
2022-10-01T02:58:18.788Z,5.77
2022-10-01T03:00:46.254Z,4.57
2022-10-01T03:03:13.706Z,4.93
2022-10-01T03:05:41.306Z,7.53
2022-10-01T03:08:08.764Z,5.37
2022-10-01T03:10:36.214Z,7.10
2022-10-01T03:13:04.035Z,3.00
2022-10-01T03:15:31.679Z,3.93
2022-10-01T03:17:59.113Z,4.20
2022-10-01T03:20:26.626Z,5.67
2022-10-01T03:22:54.055Z,4.57
2022-10-01T03:25:21.551Z,3.60
2022-10-01T03:27:49.023Z,2.87
2022-10-01T03:30:16.562Z,4.53
2022-10-01T03:32:43.983Z,3.00
2022-10-01T03:35:11.426Z,3.20
2022-10-01T03:37:38.897Z,2.47
2022-10-01T03:40:06.684Z,3.53
2022-10-01T03:42:34.175Z,2.70
2022-10-01T03:45:01.661Z,2.70
2022-10-01T03:47:29.155Z,2.87
2022-10-01T03:49:56.628Z,2.70
2022-10-01T03:52:24.084Z,2.27
2022-10-01T03:54:51.543Z,2.63
2022-10-01T03:57:18.979Z,1.73
2022-10-01T03:59:46.474Z,2.43
2022-10-01T04:02:14.020Z,1.90
2022-10-01T04:04:41.527Z,1.57
2022-10-01T04:07:08.994Z,3.13
2022-10-01T04:09:37.604Z,1.23
2022-10-01T04:12:05.148Z,2.03
2022-10-01T04:14:32.607Z,1.67
2022-10-01T04:17:00.063Z,1.57
2022-10-01T04:19:27.514Z,1.63
2022-10-01T04:21:54.926Z,1.63
2022-10-01T04:24:22.397Z,1.53
2022-10-01T04:26:51.524Z,0.80
2022-10-01T04:29:18.972Z,1.10
2022-10-01T04:31:46.464Z,1.20
2022-10-01T04:34:13.979Z,1.17
2022-10-01T04:36:41.443Z,0.60
2022-10-01T04:39:13.134Z,0.70
2022-10-01T04:41:40.650Z,1.13
2022-10-01T04:44:08.073Z,1.53
2022-10-01T04:46:35.658Z,3.03
2022-10-01T04:49:03.226Z,0.60
2022-10-01T04:51:30.749Z,0.80
2022-10-01T04:53:58.198Z,0.63
2022-10-01T04:56:25.704Z,0.50
2022-10-01T04:58:53.101Z,2.40
2022-10-01T05:01:20.584Z,0.70
2022-10-01T05:03:48.062Z,0.60
2022-10-01T05:06:15.500Z,0.87
2022-10-01T05:08:42.935Z,0.80
2022-10-01T05:11:10.497Z,0.90
2022-10-01T05:13:37.948Z,0.93
2022-10-01T05:16:05.516Z,0.80
2022-10-01T05:18:33.024Z,1.50
2022-10-01T05:21:04.655Z,0.60
2022-10-01T05:23:32.182Z,1.03
2022-10-01T05:26:00.121Z,1.90
2022-10-01T05:28:27.664Z,1.23
2022-10-01T05:30:55.142Z,2.20
2022-10-01T05:33:22.579Z,0.80
2022-10-01T05:35:49.998Z,0.60
2022-10-01T05:38:17.445Z,0.60
2022-10-01T05:40:47.636Z,0.70
2022-10-01T05:43:15.487Z,0.63
2022-10-01T05:45:43.164Z,1.03
2022-10-01T05:48:10.658Z,0.83
2022-10-01T05:50:39.118Z,0.90
2022-10-01T05:53:07.464Z,0.90
2022-10-01T05:55:35.060Z,1.33
2022-10-01T05:58:03.671Z,0.50
2022-10-01T06:00:31.863Z,0.70
2022-10-01T06:03:00.082Z,1.40
2022-10-01T06:05:28.932Z,1.00
2022-10-01T06:07:56.894Z,0.87
2022-10-01T06:10:24.796Z,1.00
2022-10-01T06:12:52.462Z,1.20
2022-10-01T06:15:19.887Z,1.20
2022-10-01T06:17:47.337Z,0.90
2022-10-01T06:20:15.937Z,1.00
2022-10-01T06:22:44.397Z,1.10
2022-10-01T06:25:12.420Z,1.00
2022-10-01T06:27:40.183Z,0.80
2022-10-01T06:30:08.266Z,0.90
2022-10-01T06:32:35.799Z,1.97
2022-10-01T06:35:03.987Z,1.10
2022-10-01T06:37:31.435Z,0.70
2022-10-01T06:39:58.858Z,0.80
2022-10-01T06:42:26.411Z,0.80
2022-10-01T06:44:53.842Z,0.70
2022-10-01T06:47:21.335Z,2.30
2022-10-01T06:49:48.817Z,0.70
2022-10-01T06:52:16.280Z,0.60
2022-10-01T06:54:43.791Z,0.70
2022-10-01T06:57:11.222Z,2.30
2022-10-01T06:59:38.625Z,0.67
2022-10-01T07:02:06.092Z,1.70
2022-10-01T07:04:33.518Z,0.60
2022-10-01T07:07:00.945Z,0.90
2022-10-01T07:09:28.429Z,1.87
2022-10-01T07:11:55.859Z,0.80
2022-10-01T07:14:23.267Z,5.40
2022-10-01T07:16:50.789Z,1.67
2022-10-01T07:19:18.262Z,0.60
2022-10-01T07:21:48.262Z,1.63
2022-10-01T07:24:15.697Z,1.63
2022-10-01T07:26:43.133Z,0.67
2022-10-01T07:29:10.612Z,0.83
2022-10-01T07:31:38.617Z,2.73
2022-10-01T07:34:06.277Z,0.60
2022-10-01T07:36:33.770Z,0.90
2022-10-01T07:39:01.211Z,1.63
2022-10-01T07:41:28.628Z,1.13
2022-10-01T07:43:56.055Z,1.67
2022-10-01T07:46:23.577Z,1.27
2022-10-01T07:48:51.218Z,0.77
2022-10-01T07:51:19.563Z,1.37
2022-10-01T07:53:47.055Z,0.70
2022-10-01T07:56:14.502Z,0.70
2022-10-01T07:58:41.914Z,2.90
2022-10-01T08:01:09.729Z,2.17
2022-10-01T08:03:37.226Z,1.40
2022-10-01T08:06:04.683Z,1.70
2022-10-01T08:08:32.164Z,0.80
2022-10-01T08:11:02.490Z,1.37
2022-10-01T08:13:29.980Z,1.20
2022-10-01T08:15:57.400Z,1.47
2022-10-01T08:18:24.921Z,0.80
2022-10-01T08:20:52.321Z,1.40
2022-10-01T08:23:19.781Z,1.33
2022-10-01T08:25:47.200Z,2.17
2022-10-01T08:28:14.958Z,1.10
2022-10-01T08:30:42.957Z,3.63
2022-10-01T08:33:11.283Z,2.00
2022-10-01T08:35:39.305Z,4.23
2022-10-01T08:38:07.043Z,2.33
2022-10-01T08:40:35.470Z,1.17
2022-10-01T08:43:04.720Z,2.20
2022-10-01T08:45:51.870Z,1.13
2022-10-01T08:48:31.424Z,1.73
2022-10-01T08:51:02.504Z,1.90
2022-10-01T08:53:32.493Z,1.87
2022-10-01T08:56:00.492Z,0.90
2022-10-01T08:58:32.971Z,3.03
2022-10-01T09:01:00.597Z,5.40
2022-10-01T09:03:31.416Z,1.63
2022-10-01T09:06:01.583Z,3.50
2022-10-01T09:08:37.660Z,1.57
2022-10-01T09:11:07.740Z,3.43
2022-10-01T09:13:35.142Z,4.33
2022-10-01T09:16:02.574Z,2.00
2022-10-01T09:18:48.498Z,2.53
2022-10-01T09:21:19.999Z,3.00
2022-10-01T09:23:59.274Z,4.97
2022-10-01T09:26:26.694Z,2.57
2022-10-01T09:28:54.512Z,1.90
2022-10-01T09:31:38.557Z,1.83
2022-10-01T09:34:12.214Z,2.30
2022-10-01T09:36:58.559Z,2.00
2022-10-01T09:39:49.084Z,2.40
2022-10-01T09:42:16.567Z,2.03
2022-10-01T09:44:44.007Z,2.03
2022-10-01T09:47:17.253Z,1.47
2022-10-01T09:49:44.686Z,3.57
2022-10-01T09:52:21.262Z,2.00
2022-10-01T09:54:57.179Z,1.87
2022-10-01T09:57:31.275Z,2.77
2022-10-01T10:00:04.930Z,3.50
2022-10-01T10:02:33.897Z,2.80
2022-10-01T10:05:05.570Z,1.47
2022-10-01T10:07:33.426Z,1.10
2022-10-01T10:10:17.162Z,3.13
2022-10-01T10:12:44.629Z,2.97
2022-10-01T10:15:17.318Z,3.60
2022-10-01T10:17:46.042Z,3.30
2022-10-01T10:20:33.840Z,4.83
2022-10-01T10:23:15.955Z,8.83
2022-10-01T10:25:43.659Z,3.80
2022-10-01T10:28:21.522Z,4.70
2022-10-01T10:30:49.054Z,5.20
2022-10-01T10:33:17.104Z,4.90
2022-10-01T10:35:44.609Z,4.33
2022-10-01T10:38:21.906Z,7.03
2022-10-01T10:40:49.390Z,3.63
2022-10-01T10:43:19.649Z,7.33
2022-10-01T10:45:47.494Z,8.43
2022-10-01T10:48:17.237Z,4.90
2022-10-01T10:50:45.934Z,4.10
2022-10-01T10:53:24.008Z,7.33
2022-10-01T10:55:54.551Z,6.63
2022-10-01T10:58:24.920Z,7.37
2022-10-01T11:00:53.572Z,6.63
2022-10-01T11:03:22.373Z,6.03
2022-10-01T11:05:50.160Z,5.47
2022-10-01T11:08:21.539Z,7.83
2022-10-01T11:10:49.028Z,5.80
2022-10-01T11:13:22.619Z,7.80
2022-10-01T11:16:09.005Z,8.00
2022-10-01T11:18:36.437Z,8.40
2022-10-01T11:21:03.845Z,7.63
2022-10-01T11:23:31.320Z,5.90
2022-10-01T11:26:04.575Z,6.70
2022-10-01T11:28:41.473Z,5.60
2022-10-01T11:31:19.962Z,8.93
2022-10-01T11:34:05.939Z,7.57
2022-10-01T11:36:55.337Z,5.40
2022-10-01T11:39:25.399Z,6.77
2022-10-01T11:41:55.518Z,5.90
2022-10-01T11:44:27.286Z,7.97
2022-10-01T11:46:57.694Z,6.97
2022-10-01T11:49:25.178Z,5.70
2022-10-01T11:51:55.009Z,7.43
2022-10-01T11:54:26.568Z,8.53
2022-10-01T11:56:55.881Z,5.37
2022-10-01T11:59:29.179Z,5.63
2022-10-01T12:02:14.857Z,9.50
2022-10-01T12:04:45.133Z,9.83
2022-10-01T12:07:12.604Z,7.47
2022-10-01T12:09:53.661Z,7.30
2022-10-01T12:12:23.424Z,8.83
2022-10-01T12:14:57.581Z,8.63
2022-10-01T12:17:33.131Z,10.53
2022-10-01T12:20:02.470Z,15.07
2022-10-01T12:22:38.383Z,13.80
2022-10-01T12:25:11.437Z,14.60
2022-10-01T12:27:47.384Z,7.13
2022-10-01T12:30:22.432Z,10.50
2022-10-01T12:33:07.651Z,8.23
2022-10-01T12:35:35.153Z,7.10
2022-10-01T12:38:08.706Z,8.77
2022-10-01T12:40:51.544Z,7.70
2022-10-01T12:43:37.754Z,11.90
2022-10-01T12:46:14.273Z,7.30
2022-10-01T12:48:44.765Z,11.37
2022-10-01T12:51:15.264Z,8.53
2022-10-01T12:53:57.800Z,11.97
2022-10-01T12:56:33.120Z,7.07
2022-10-01T12:59:00.836Z,7.70
2022-10-01T13:01:40.351Z,8.00
2022-10-01T13:04:46.425Z,6.77
2022-10-01T13:07:25.980Z,9.03
2022-10-01T13:10:11.677Z,7.67
2022-10-01T13:12:39.142Z,8.47
2022-10-01T13:15:12.413Z,7.80
2022-10-01T13:18:00.690Z,7.37
2022-10-01T13:20:36.387Z,7.47
2022-10-01T13:23:11.356Z,11.50
2022-10-01T13:25:44.580Z,9.53
2022-10-01T13:28:20.731Z,7.80
2022-10-01T13:31:01.980Z,10.27
2022-10-01T13:33:31.491Z,7.67
2022-10-01T13:36:00.027Z,11.63
2022-10-01T13:38:29.410Z,11.17
2022-10-01T13:40:58.137Z,13.67
2022-10-01T13:43:25.669Z,10.07
2022-10-01T13:45:53.953Z,10.27
2022-10-01T13:48:27.433Z,8.07
2022-10-01T13:50:54.874Z,11.83
2022-10-01T13:53:23.642Z,9.50
2022-10-01T13:55:51.146Z,8.50
2022-10-01T13:58:21.753Z,12.60
2022-10-01T14:00:50.323Z,11.87
2022-10-01T14:03:26.739Z,10.97
2022-10-01T14:06:04.869Z,12.63
2022-10-01T14:08:59.619Z,8.40
2022-10-01T14:11:31.069Z,11.67
2022-10-01T14:14:03.237Z,8.43
2022-10-01T14:16:31.136Z,11.43
2022-10-01T14:19:01.649Z,11.97
2022-10-01T14:21:51.759Z,11.43
2022-10-01T14:24:25.089Z,10.60
2022-10-01T14:27:18.992Z,10.80
2022-10-01T14:29:49.350Z,12.87
2022-10-01T14:32:35.787Z,6.23
2022-10-01T14:35:12.238Z,8.30
2022-10-01T14:37:40.015Z,14.50
2022-10-01T14:40:15.203Z,8.77
2022-10-01T14:42:42.827Z,8.10
2022-10-01T14:45:17.833Z,8.57
2022-10-01T14:47:45.377Z,10.37
2022-10-01T14:50:16.219Z,9.57
2022-10-01T14:52:46.421Z,9.10
2022-10-01T14:55:15.216Z,9.20
2022-10-01T14:57:44.406Z,11.47
2022-10-01T15:00:16.358Z,13.67
2022-10-01T15:02:57.639Z,7.77
2022-10-01T15:05:29.721Z,8.07
2022-10-01T15:08:13.854Z,7.83
2022-10-01T15:11:01.598Z,6.77
2022-10-01T15:13:31.583Z,11.97
2022-10-01T15:15:59.616Z,13.13
2022-10-01T15:18:30.422Z,8.83
2022-10-01T15:21:02.809Z,11.30
2022-10-01T15:23:31.248Z,9.47
2022-10-01T15:26:02.124Z,6.67
2022-10-01T15:28:33.438Z,8.63
2022-10-01T15:31:01.747Z,8.00
2022-10-01T15:33:33.516Z,8.47
2022-10-01T15:36:05.484Z,9.33
2022-10-01T15:38:33.651Z,9.10
2022-10-01T15:41:26.706Z,8.50
2022-10-01T15:43:51.083Z,11.30
2022-10-01T15:46:28.802Z,8.30
2022-10-01T15:49:15.231Z,9.40
2022-10-01T15:52:02.055Z,8.60
2022-10-01T15:54:29.483Z,6.47
2022-10-01T15:56:56.914Z,7.40
2022-10-01T15:59:24.542Z,8.27
2022-10-01T16:01:52.083Z,9.73
2022-10-01T16:04:26.682Z,11.50
2022-10-01T16:06:58.426Z,5.03
2022-10-01T16:09:29.039Z,5.90
2022-10-01T16:11:58.124Z,7.17
2022-10-01T16:14:44.427Z,6.47
2022-10-01T16:17:24.451Z,7.73
2022-10-01T16:19:59.152Z,6.97
2022-10-01T16:22:26.667Z,7.37
2022-10-01T16:24:58.559Z,9.10
2022-10-01T16:27:27.441Z,7.77
2022-10-01T16:30:00.143Z,9.13
2022-10-01T16:32:31.558Z,5.17
2022-10-01T16:35:18.669Z,9.57
2022-10-01T16:37:46.159Z,9.33
2022-10-01T16:40:16.221Z,6.50
2022-10-01T16:42:44.796Z,5.33
2022-10-01T16:45:23.042Z,9.60
2022-10-01T16:47:50.901Z,8.23
2022-10-01T16:50:19.366Z,8.47
2022-10-01T16:52:46.803Z,10.77
2022-10-01T16:55:18.811Z,8.37
2022-10-01T16:57:46.333Z,9.77
2022-10-01T17:00:14.703Z,6.63
2022-10-01T17:02:42.368Z,10.47
2022-10-01T17:05:29.170Z,9.47
2022-10-01T17:07:57.270Z,5.93
2022-10-01T17:10:24.831Z,7.23
2022-10-01T17:12:52.320Z,5.60
2022-10-01T17:15:24.320Z,8.57
2022-10-01T17:17:51.740Z,7.60
2022-10-01T17:20:19.191Z,9.27
2022-10-01T17:22:46.634Z,4.40
2022-10-01T17:25:18.532Z,12.73
2022-10-01T17:27:46.055Z,10.97
2022-10-01T17:30:13.753Z,7.30
2022-10-01T17:32:41.372Z,8.30
2022-10-01T17:35:09.548Z,6.40
2022-10-01T17:37:37.495Z,7.27
2022-10-01T17:40:05.743Z,10.67
2022-10-01T17:42:33.473Z,6.97
2022-10-01T17:45:00.919Z,5.43
2022-10-01T17:47:28.448Z,8.17
2022-10-01T17:49:55.954Z,10.83
2022-10-01T17:52:23.511Z,12.20
2022-10-01T17:54:53.358Z,8.03
2022-10-01T17:57:23.030Z,10.33
2022-10-01T17:59:50.491Z,9.37
2022-10-01T18:02:40.351Z,8.60
2022-10-01T18:05:05.944Z,7.97
2022-10-01T18:07:33.359Z,9.97
2022-10-01T18:10:00.799Z,10.17
2022-10-01T18:12:28.302Z,15.77
2022-10-01T18:14:55.762Z,15.43
2022-10-01T18:17:23.221Z,11.70
2022-10-01T18:19:54.361Z,11.57
2022-10-01T18:22:22.116Z,12.30
2022-10-01T18:24:49.780Z,10.63
2022-10-01T18:27:17.267Z,9.77
2022-10-01T18:29:44.732Z,9.20
2022-10-01T18:32:12.213Z,13.63
2022-10-01T18:34:39.665Z,14.20
2022-10-01T18:37:08.502Z,9.93
2022-10-01T18:39:45.123Z,11.73
2022-10-01T18:42:17.415Z,10.43
2022-10-01T18:44:44.904Z,7.27
2022-10-01T18:47:31.360Z,9.37
2022-10-01T18:50:01.635Z,12.20
2022-10-01T18:52:35.281Z,12.77
2022-10-01T18:55:10.420Z,12.93
2022-10-01T18:57:49.662Z,9.70
2022-10-01T19:00:17.227Z,9.17
2022-10-01T19:02:49.463Z,9.03
2022-10-01T19:05:36.799Z,15.80
2022-10-01T19:08:22.706Z,11.53
2022-10-01T19:10:53.327Z,12.30
2022-10-01T19:13:47.352Z,11.07
2022-10-01T19:16:21.075Z,11.53
2022-10-01T19:18:48.631Z,13.73
2022-10-01T19:21:33.778Z,11.50
2022-10-01T19:24:04.345Z,12.77
2022-10-01T19:26:34.716Z,14.93
2022-10-01T19:29:02.391Z,12.47
2022-10-01T19:31:48.768Z,14.00
2022-10-01T19:34:22.500Z,13.03
2022-10-01T19:36:55.705Z,12.87
2022-10-01T19:39:25.593Z,11.90
2022-10-01T19:41:58.998Z,12.20
2022-10-01T19:44:29.750Z,7.90
2022-10-01T19:47:00.903Z,13.57
2022-10-01T19:49:40.037Z,16.27
2022-10-01T19:52:12.181Z,13.23
2022-10-01T19:54:45.919Z,13.43
2022-10-01T19:57:13.372Z,15.83
2022-10-01T19:59:41.290Z,14.47
2022-10-01T20:02:21.254Z,6.37
2022-10-01T20:04:56.340Z,13.97
2022-10-01T20:07:31.014Z,11.23
2022-10-01T20:10:05.707Z,11.13
2022-10-01T20:12:39.546Z,9.10
2022-10-01T20:15:22.039Z,14.17
2022-10-01T20:18:14.036Z,9.77
2022-10-01T20:20:41.463Z,12.13
2022-10-01T20:23:08.921Z,19.30
2022-10-01T20:25:42.260Z,17.43
2022-10-01T20:28:15.812Z,18.40
2022-10-01T20:30:54.953Z,13.57
2022-10-01T20:33:29.112Z,14.97
2022-10-01T20:36:16.433Z,14.27
2022-10-01T20:38:46.696Z,12.57
2022-10-01T20:41:16.139Z,13.27
2022-10-01T20:43:48.274Z,16.10
2022-10-01T20:46:19.667Z,16.70
2022-10-01T20:48:50.180Z,14.50
2022-10-01T20:51:36.520Z,17.37
2022-10-01T20:54:07.474Z,11.60
2022-10-01T20:57:20.527Z,13.90
2022-10-01T20:59:52.424Z,19.77
2022-10-01T21:02:25.740Z,14.03
2022-10-01T21:05:02.969Z,14.43
2022-10-01T21:07:52.835Z,14.37
2022-10-01T21:10:40.683Z,12.80
2022-10-01T21:13:27.799Z,15.47
2022-10-01T21:16:18.876Z,14.67
2022-10-01T21:19:14.135Z,17.10
2022-10-01T21:21:57.414Z,14.23
2022-10-01T21:24:25.072Z,17.73
2022-10-01T21:27:06.848Z,18.20
2022-10-01T21:29:42.417Z,18.67
2022-10-01T21:32:36.903Z,15.17
2022-10-01T21:35:23.563Z,14.50
2022-10-01T21:38:14.737Z,16.87
2022-10-01T21:40:56.857Z,15.20
2022-10-01T21:43:35.848Z,17.07
2022-10-01T21:46:06.011Z,15.37
2022-10-01T21:48:42.841Z,17.83
2022-10-01T21:51:16.500Z,16.47
2022-10-01T21:53:43.919Z,16.60
2022-10-01T21:56:29.874Z,20.93
2022-10-01T21:59:04.035Z,19.40
2022-10-01T22:01:57.232Z,13.83
2022-10-01T22:04:39.716Z,15.03
2022-10-01T22:07:20.444Z,14.57
2022-10-01T22:09:57.948Z,15.90
2022-10-01T22:12:27.333Z,13.90
2022-10-01T22:14:56.218Z,13.87
2022-10-01T22:17:26.542Z,13.13
2022-10-01T22:19:57.158Z,13.27
2022-10-01T22:22:32.047Z,13.90
2022-10-01T22:25:00.802Z,18.63
2022-10-01T22:27:31.013Z,9.83
2022-10-01T22:30:01.225Z,14.87
2022-10-01T22:32:33.809Z,20.20
2022-10-01T22:35:07.385Z,16.23
2022-10-01T22:37:38.209Z,12.07
2022-10-01T22:40:28.991Z,20.07
2022-10-01T22:43:03.998Z,11.10
2022-10-01T22:45:50.382Z,12.00
2022-10-01T22:48:27.603Z,17.17
2022-10-01T22:51:10.049Z,14.07
2022-10-01T22:53:50.644Z,18.70
2022-10-01T22:56:23.748Z,12.37
2022-10-01T22:58:51.145Z,15.53
2022-10-01T23:01:37.404Z,16.67
2022-10-01T23:04:13.862Z,18.23
2022-10-01T23:06:59.692Z,15.67
2022-10-01T23:09:35.444Z,19.30
2022-10-01T23:12:32.285Z,18.03
2022-10-01T23:15:02.508Z,17.03
2022-10-01T23:17:38.834Z,19.70
2022-10-01T23:20:06.248Z,13.47
2022-10-01T23:22:59.631Z,12.50
2022-10-01T23:25:36.128Z,14.43
2022-10-01T23:28:22.644Z,17.40
2022-10-01T23:30:54.294Z,17.80
2022-10-01T23:33:21.709Z,20.97
2022-10-01T23:35:57.365Z,22.97
2022-10-01T23:38:43.618Z,26.67
2022-10-01T23:41:46.609Z,16.20
2022-10-01T23:44:16.991Z,19.57
2022-10-01T23:46:46.390Z,17.37
2022-10-01T23:49:17.075Z,20.63
2022-10-01T23:51:47.357Z,15.97
2022-10-01T23:54:41.135Z,21.83
2022-10-01T23:57:18.232Z,24.47
2022-10-01T23:59:48.095Z,22.40
